Cook Station, Missouri
Current Conditions -  °F | °C
As of 10:53 AM on Thursday 23 Oct 2014 (Local Time) from KVIH Reporting Station
Broken Clouds Broken Clouds  
Wind Chill: 55°   Ceiling: 4100
Heat Index: 55°   Visibility: 10mi
Dew Point: 43°   Wind: 15mph
Humidity: 64%   Direction: 190°S
Pressure: 30.17"   Gusts: NA
Location:  37.81°N, 91.44°W
Report Text: KVIH 231553Z AUTO 19013KT 10SM BKN041 13/06 A3017 RMK AO2 SLP216 T01280061
Loading
Personal Weather Stations






























Interactive Weather Map
Tropical Storm Tracking
New forecast layout! Learn more

10-Day Weather Forecast

Advertisements
Track Severe Weather on mobile